Map

Track Data

SID SEASON NUMBER BASIN SUBBASIN NAME ISO_TIME NATURE LAT LON WMO_WIND WMO_PRES WMO_AGENCY TRACK_TYPE DIST2LAND LANDFALL IFLAG USA_AGENCY USA_ATCF_ID USA_LAT USA_LON USA_RECORD USA_STATUS USA_WIND USA_PRES USA_SSHS USA_R34_NE USA_R34_SE USA_R34_SW USA_R34_NW USA_R50_NE USA_R50_SE USA_R50_SW USA_R50_NW USA_R64_NE USA_R64_SE USA_R64_SW USA_R64_NW USA_POCI USA_ROCI USA_RMW USA_EYE TOKYO_LAT TOKYO_LON TOKYO_GRADE TOKYO_WIND TOKYO_PRES TOKYO_R50_DIR TOKYO_R50_LONG TOKYO_R50_SHORT TOKYO_R30_DIR TOKYO_R30_LONG TOKYO_R30_SHORT TOKYO_LAND CMA_LAT CMA_LON CMA_CAT CMA_WIND CMA_PRES HKO_LAT HKO_LON HKO_CAT HKO_WIND HKO_PRES NEWDELHI_LAT NEWDELHI_LON NEWDELHI_GRADE NEWDELHI_WIND NEWDELHI_PRES NEWDELHI_CI NEWDELHI_DP NEWDELHI_POCI REUNION_LAT REUNION_LON REUNION_TYPE REUNION_WIND REUNION_PRES REUNION_TNUM REUNION_CI REUNION_RMW REUNION_R34_NE REUNION_R34_SE REUNION_R34_SW REUNION_R34_NW REUNION_R50_NE REUNION_R50_SE REUNION_R50_SW REUNION_R50_NW REUNION_R64_NE REUNION_R64_SE REUNION_R64_SW REUNION_R64_NW BOM_LAT BOM_LON BOM_TYPE BOM_WIND BOM_PRES BOM_TNUM BOM_CI BOM_RMW BOM_R34_NE BOM_R34_SE BOM_R34_SW BOM_R34_NW BOM_R50_NE BOM_R50_SE BOM_R50_SW BOM_R50_NW BOM_R64_NE BOM_R64_SE BOM_R64_SW BOM_R64_NW BOM_ROCI BOM_POCI BOM_EYE BOM_POS_METHOD BOM_PRES_METHOD NADI_LAT NADI_LON NADI_CAT NADI_WIND NADI_PRES WELLINGTON_LAT WELLINGTON_LON WELLINGTON_WIND WELLINGTON_PRES DS824_LAT DS824_LON DS824_STAGE DS824_WIND DS824_PRES TD9636_LAT TD9636_LON TD9636_STAGE TD9636_WIND TD9636_PRES TD9635_LAT TD9635_LON TD9635_WIND TD9635_PRES TD9635_ROCI NEUMANN_LAT NEUMANN_LON NEUMANN_CLASS NEUMANN_WIND NEUMANN_PRES MLC_LAT MLC_LON MLC_CLASS MLC_WIND MLC_PRES USA_GUST BOM_GUST BOM_GUST_PER REUNION_GUST REUNION_GUST_PER USA_SEAHGT USA_SEARAD_NE USA_SEARAD_SE USA_SEARAD_SW USA_SEARAD_NW STORM_SPEED STORM_DIR
1862287N33290 1862 26 NA NA NOT_NAMED 1862-10-14 00:00:00 TS 33.0000 -69.6000 70 hurdat_atl main 623 612 O_____________ hurdat_atl AL051862 33.0000 -69.6000 HU 70 1 5 4
1862287N33290 1862 26 NA NA NOT_NAMED 1862-10-14 03:00:00 TS 33.2300 -69.5975 main 612 596 P_____________ AL051862 33.2300 -69.5975 HU 70 1 5 2
1862287N33290 1862 26 NA NA NOT_NAMED 1862-10-14 06:00:00 TS 33.5000 -69.6000 70 hurdat_atl main 596 581 O_____________ hurdat_atl AL051862 33.5000 -69.6000 HU 70 1 6 358
1862287N33290 1862 26 NA NA NOT_NAMED 1862-10-14 09:00:00 TS 33.8350 -69.6074 main 581 564 P_____________ AL051862 33.8350 -69.6074 HU 70 1 7 0
1862287N33290 1862 26 NA NA NOT_NAMED 1862-10-14 12:00:00 TS 34.2000 -69.6000 70 hurdat_atl main 564 554 O_____________ hurdat_atl AL051862 34.2000 -69.6000 HU 70 1 7 2
1862287N33290 1862 26 NA NA NOT_NAMED 1862-10-14 15:00:00 TS 34.5575 -69.5576 main 551 551 P_____________ AL051862 34.5575 -69.5576 HU 70 1 7 6
1862287N33290 1862 26 NA NA NOT_NAMED 1862-10-14 18:00:00 TS 34.9000 -69.5000 70 hurdat_atl main 552 545 O_____________ hurdat_atl AL051862 34.9000 -69.5000 HU 70 1 6 7
1862287N33290 1862 26 NA NA NOT_NAMED 1862-10-14 21:00:00 TS 35.1925 -69.4647 main 545 544 P_____________ AL051862 35.1925 -69.4647 HU 70 1 6 8
1862287N33290 1862 26 NA NA NOT_NAMED 1862-10-15 00:00:00 TS 35.5000 -69.4000 70 hurdat_atl main 550 549 O_____________ hurdat_atl AL051862 35.5000 -69.4000 HU 70 1 7 13
1862287N33290 1862 26 NA NA NOT_NAMED 1862-10-15 03:00:00 TS 35.8775 -69.2651 main 557 557 P_____________ AL051862 35.8775 -69.2651 HU 70 1 8 17
1862287N33290 1862 26 NA NA NOT_NAMED 1862-10-15 06:00:00 TS 36.3000 -69.1000 70 hurdat_atl main 574 552 O_____________ hurdat_atl AL051862 36.3000 -69.1000 HU 70 1 9 17
1862287N33290 1862 26 NA NA NOT_NAMED 1862-10-15 09:00:00 TS 36.7200 -68.9497 main 556 505 P_____________ AL051862 36.7200 -68.9497 HU 70 1 9 15
1862287N33290 1862 26 NA NA NOT_NAMED 1862-10-15 12:00:00 TS 37.2000 -68.8000 70 hurdat_atl main 505 456 O_____________ hurdat_atl AL051862 37.2000 -68.8000 HU 70 1 11 13
1862287N33290 1862 26 NA NA NOT_NAMED 1862-10-15 15:00:00 TS 37.7625 -68.6571 main 445 388 P_____________ AL051862 37.7625 -68.6571 HU 70 1 12 11
1862287N33290 1862 26 NA NA NOT_NAMED 1862-10-15 18:00:00 TS 38.4000 -68.5000 70 hurdat_atl main 388 332 O_____________ hurdat_atl AL051862 38.4000 -68.5000 HU 70 1 14 11
1862287N33290 1862 26 NA NA NOT_NAMED 1862-10-15 21:00:00 TS 39.0850 -68.3147 main 322 264 P_____________ AL051862 39.0850 -68.3147 HU 70 1 14 13
1862287N33290 1862 26 NA NA NOT_NAMED 1862-10-16 00:00:00 TS 39.8000 -68.1000 70 hurdat_atl main 264 220 O_____________ hurdat_atl AL051862 39.8000 -68.1000 HU 70 1 15 13
1862287N33290 1862 26 NA NA NOT_NAMED 1862-10-16 03:00:00 TS 40.5222 -67.8940 main 220 202 P_____________ AL051862 40.5222 -67.8940 HU 70 1 15 15
1862287N33290 1862 26 NA NA NOT_NAMED 1862-10-16 06:00:00 TS 41.2000 -67.6000 70 hurdat_atl main 206 204 O_____________ hurdat_atl AL051862 41.2000 -67.6000 HU 70 1 14 23
1862287N33290 1862 26 NA NA NOT_NAMED 1862-10-16 09:00:00 TS 41.7720 -67.1811 main 225 152 P_____________ AL051862 41.7720 -67.1811 HU 65 1 13 34
1862287N33290 1862 26 NA NA NOT_NAMED 1862-10-16 12:00:00 ET 42.3000 -66.6000 60 hurdat_atl main 152 79 O_____________ hurdat_atl AL051862 42.3000 -66.6000 EX 60 -4 14 42
1862287N33290 1862 26 NA NA NOT_NAMED 1862-10-16 15:00:00 ET 42.8496 -65.8739 main 79 19 P_____________ AL051862 42.8496 -65.8739 EX 60 -4 16 47
1862287N33290 1862 26 NA NA NOT_NAMED 1862-10-16 18:00:00 ET 43.4000 -65.0000 60 hurdat_atl main 26 19 O_____________ hurdat_atl AL051862 43.4000 -65.0000 EX 60 -4 17 49
1862287N33290 1862 26 NA NA NOT_NAMED 1862-10-16 21:00:00 ET 43.9551 -64.1022 main 33 13 P_____________ AL051862 43.9551 -64.1022 EX 55 -4 18 53
1862287N33290 1862 26 NA NA NOT_NAMED 1862-10-17 00:00:00 ET 44.5000 -63.0000 50 hurdat_atl main 22 7 O_____________ hurdat_atl AL051862 44.5000 -63.0000 EX 50 -4 21 59
1862287N33290 1862 26 NA NA NOT_NAMED 1862-10-17 03:00:00 ET 45.0158 -61.5962 main 11 0 P_____________ AL051862 45.0158 -61.5962 EX 50 -4 23 65
1862287N33290 1862 26 NA NA NOT_NAMED 1862-10-17 06:00:00 ET 45.5000 -60.0000 50 hurdat_atl main 32 O_____________ hurdat_atl AL051862 45.5000 -60.0000 EX 50 -4 24 67

About IBTrACS Database

This database is a web-friendly format of International Best Track Archive for Climate Stewardship (IBTrACS), a global best track data archive curated by NOAA dating back to 1842.

Updated: 2021-12-01